createdAt,value
2019-03-18T00:00:13.818Z,99.73
2019-03-18T00:02:46.754Z,99.77
2019-03-18T00:05:19.798Z,99.44
2019-03-18T00:07:53.769Z,99.45
2019-03-18T00:10:30.241Z,99.42
2019-03-18T00:13:03.670Z,99.46
2019-03-18T00:15:35.527Z,99.19
2019-03-18T00:18:11.898Z,99.16
2019-03-18T00:20:47.130Z,98.99
2019-03-18T00:23:21.331Z,98.93
2019-03-18T00:25:54.650Z,98.94
2019-03-18T00:28:28.028Z,98.91
2019-03-18T00:31:01.798Z,98.87
2019-03-18T00:33:35.744Z,98.96
2019-03-18T00:36:09.304Z,98.75
2019-03-18T00:38:41.314Z,98.79
2019-03-18T00:41:13.741Z,98.87
2019-03-18T00:43:47.075Z,98.94
2019-03-18T00:46:20.492Z,98.94
2019-03-18T00:48:57.366Z,99.06
2019-03-18T00:51:30.011Z,99.14
2019-03-18T00:54:03.217Z,99.59
2019-03-18T00:56:35.604Z,99.98
2019-03-18T00:59:08.035Z,100.00
2019-03-18T01:01:40.989Z,100.00
2019-03-18T01:04:14.276Z,100.00
2019-03-18T01:06:45.894Z,100.00
2019-03-18T01:09:20.178Z,100.00
2019-03-18T01:11:54.242Z,100.00
2019-03-18T01:14:31.970Z,100.00
2019-03-18T01:17:05.995Z,100.00
2019-03-18T01:19:40.205Z,100.00
2019-03-18T01:22:13.560Z,100.00
2019-03-18T01:24:46.997Z,100.00
2019-03-18T01:27:20.562Z,100.00
2019-03-18T01:29:54.279Z,100.00
2019-03-18T01:32:27.658Z,100.00
2019-03-18T01:35:00.514Z,100.00
2019-03-18T01:37:34.161Z,100.00
2019-03-18T01:40:08.571Z,100.00
2019-03-18T01:42:41.967Z,100.00
2019-03-18T01:45:15.241Z,100.00
2019-03-18T01:47:49.395Z,100.00
2019-03-18T01:50:22.907Z,100.00
2019-03-18T01:52:54.773Z,100.00
2019-03-18T01:55:28.373Z,100.00
2019-03-18T01:58:01.943Z,100.00
2019-03-18T02:00:40.103Z,100.00
2019-03-18T02:03:13.978Z,100.00
2019-03-18T02:05:47.879Z,100.00
2019-03-18T02:08:21.196Z,100.00
2019-03-18T02:10:54.334Z,100.00
2019-03-18T02:13:27.990Z,100.00
2019-03-18T02:16:01.114Z,100.00
2019-03-18T02:18:34.347Z,100.00
2019-03-18T02:21:06.101Z,100.00
2019-03-18T02:23:39.264Z,100.00
2019-03-18T02:26:13.505Z,100.00
2019-03-18T02:28:47.427Z,100.00
2019-03-18T02:31:21.503Z,100.00
2019-03-18T02:33:54.859Z,100.00
2019-03-18T02:36:28.249Z,100.00
2019-03-18T02:39:08.284Z,100.00
2019-03-18T02:41:46.826Z,100.00
2019-03-18T02:44:21.719Z,100.00
2019-03-18T02:47:02.799Z,100.00
2019-03-18T02:49:37.560Z,100.00
2019-03-18T02:52:12.930Z,100.00
2019-03-18T02:54:48.644Z,100.00
2019-03-18T02:57:22.324Z,100.00
2019-03-18T02:59:55.390Z,100.00
2019-03-18T03:02:28.727Z,100.00
2019-03-18T03:05:01.693Z,100.00
2019-03-18T03:07:34.583Z,100.00
2019-03-18T03:10:08.927Z,100.00
2019-03-18T03:12:42.077Z,100.00
2019-03-18T03:15:15.476Z,100.00
2019-03-18T03:17:48.665Z,100.00
2019-03-18T03:20:22.139Z,100.00
2019-03-18T03:22:55.438Z,100.00
2019-03-18T03:25:28.132Z,100.00
2019-03-18T03:28:01.280Z,100.00
2019-03-18T03:30:33.751Z,100.00
2019-03-18T03:33:06.792Z,100.00
2019-03-18T03:35:41.470Z,100.00
2019-03-18T03:38:17.516Z,100.00
2019-03-18T03:40:50.635Z,100.00
2019-03-18T03:43:26.689Z,100.00
2019-03-18T03:46:00.652Z,100.00
2019-03-18T03:48:37.344Z,100.00
2019-03-18T03:51:10.308Z,100.00
2019-03-18T03:53:44.243Z,100.00
2019-03-18T03:56:17.863Z,100.00
2019-03-18T03:58:49.581Z,100.00
2019-03-18T04:01:22.362Z,100.00
2019-03-18T04:03:55.145Z,100.00
2019-03-18T04:06:28.086Z,100.00
2019-03-18T04:09:01.214Z,100.00
2019-03-18T04:11:34.082Z,100.00
2019-03-18T04:14:07.504Z,100.00
2019-03-18T04:17:00.567Z,100.00
2019-03-18T04:19:20.667Z,100.00
2019-03-18T04:21:54.675Z,100.00
2019-03-18T04:24:27.684Z,100.00
2019-03-18T04:27:01.234Z,100.00
2019-03-18T04:29:33.813Z,100.00
2019-03-18T04:32:08.218Z,100.00
2019-03-18T04:34:41.647Z,100.00
2019-03-18T04:37:14.916Z,100.00
2019-03-18T04:39:49.176Z,100.00
2019-03-18T04:42:23.169Z,100.00
2019-03-18T04:44:56.208Z,100.00
2019-03-18T04:47:29.241Z,100.00
2019-03-18T04:50:02.681Z,100.00
2019-03-18T04:52:35.977Z,100.00
2019-03-18T04:55:09.675Z,100.00
2019-03-18T04:57:43.326Z,100.00
2019-03-18T05:00:16.380Z,100.00
2019-03-18T05:02:49.394Z,100.00
2019-03-18T05:05:22.439Z,100.00
2019-03-18T05:07:54.923Z,100.00
2019-03-18T05:10:27.688Z,100.00
2019-03-18T05:13:01.617Z,100.00
2019-03-18T05:15:34.625Z,100.00
2019-03-18T05:18:06.372Z,100.00
2019-03-18T05:20:38.816Z,100.00
2019-03-18T05:23:12.074Z,100.00
2019-03-18T05:25:44.107Z,100.00
2019-03-18T05:28:17.147Z,100.00
2019-03-18T05:30:50.815Z,100.00
2019-03-18T05:33:23.580Z,100.00
2019-03-18T05:35:56.936Z,100.00
2019-03-18T05:38:29.913Z,100.00
2019-03-18T05:41:02.467Z,100.00
2019-03-18T05:43:34.865Z,100.00
2019-03-18T05:46:08.344Z,100.00
2019-03-18T05:48:41.622Z,100.00
2019-03-18T05:51:14.404Z,100.00
2019-03-18T05:53:47.549Z,100.00
2019-03-18T05:56:20.361Z,100.00
2019-03-18T05:58:53.221Z,100.00
2019-03-18T06:01:26.716Z,100.00
2019-03-18T06:03:59.925Z,100.00
2019-03-18T06:06:32.966Z,100.00
2019-03-18T06:09:05.775Z,100.00
2019-03-18T06:11:39.118Z,100.00
2019-03-18T06:14:12.078Z,100.00
2019-03-18T06:16:43.924Z,100.00
2019-03-18T06:19:16.795Z,100.00
2019-03-18T06:21:48.575Z,100.00
2019-03-18T06:24:21.308Z,100.00
2019-03-18T06:26:54.454Z,100.00
2019-03-18T06:29:29.951Z,100.00
2019-03-18T06:32:03.888Z,100.00
2019-03-18T06:34:37.388Z,100.00
2019-03-18T06:37:10.348Z,100.00
2019-03-18T06:39:42.038Z,100.00
2019-03-18T06:42:14.553Z,100.00
2019-03-18T06:44:47.289Z,100.00
2019-03-18T06:47:20.298Z,100.00
2019-03-18T06:49:52.957Z,100.00
2019-03-18T06:52:26.741Z,100.00
2019-03-18T06:55:00.418Z,100.00
2019-03-18T06:57:33.206Z,100.00
2019-03-18T07:00:07.114Z,100.00
2019-03-18T07:02:40.957Z,100.00
2019-03-18T07:05:13.767Z,100.00
2019-03-18T07:07:47.131Z,100.00
2019-03-18T07:10:20.496Z,100.00
2019-03-18T07:12:52.746Z,100.00
2019-03-18T07:15:27.437Z,100.00
2019-03-18T07:18:00.756Z,100.00
2019-03-18T07:20:34.219Z,100.00
2019-03-18T07:23:07.725Z,100.00
2019-03-18T07:25:40.654Z,100.00
2019-03-18T07:28:13.904Z,100.00
2019-03-18T07:30:47.178Z,100.00
2019-03-18T07:33:20.654Z,100.00
2019-03-18T07:35:54.297Z,100.00
2019-03-18T07:38:27.281Z,100.00
2019-03-18T07:40:59.095Z,100.00
2019-03-18T07:43:31.913Z,100.00
2019-03-18T07:46:05.420Z,100.00
2019-03-18T07:48:39.049Z,100.00
2019-03-18T07:51:10.844Z,100.00
2019-03-18T07:53:44.437Z,100.00
2019-03-18T07:56:18.044Z,100.00
2019-03-18T07:58:50.126Z,100.00
2019-03-18T08:01:23.019Z,100.00
2019-03-18T08:03:55.095Z,100.00
2019-03-18T08:06:28.552Z,100.00
2019-03-18T08:09:01.628Z,100.00
2019-03-18T08:11:34.859Z,100.00
2019-03-18T08:14:06.292Z,100.00
2019-03-18T08:16:40.034Z,100.00
2019-03-18T08:19:12.966Z,100.00
2019-03-18T08:21:46.446Z,100.00
2019-03-18T08:24:19.846Z,100.00
2019-03-18T08:26:55.518Z,100.00
2019-03-18T08:29:29.418Z,100.00
2019-03-18T08:32:02.998Z,100.00
2019-03-18T08:34:36.766Z,100.00
2019-03-18T08:37:10.427Z,100.00
2019-03-18T08:39:44.092Z,100.00
2019-03-18T08:42:18.071Z,100.00
2019-03-18T08:44:51.374Z,100.00
2019-03-18T08:47:24.502Z,100.00
2019-03-18T08:49:57.619Z,98.85
2019-03-18T08:52:30.390Z,98.26
2019-03-18T08:55:03.748Z,98.14
2019-03-18T08:57:37.614Z,96.87
2019-03-18T09:00:12.457Z,96.30
2019-03-18T09:02:46.682Z,95.69
2019-03-18T09:05:20.276Z,93.94
2019-03-18T09:07:53.956Z,93.20
2019-03-18T09:10:26.619Z,92.16
2019-03-18T09:12:59.989Z,91.52
2019-03-18T09:15:33.080Z,91.14
2019-03-18T09:18:06.238Z,90.66
2019-03-18T09:20:39.337Z,89.96
2019-03-18T09:23:10.990Z,89.51
2019-03-18T09:25:44.021Z,89.02
2019-03-18T09:28:17.529Z,88.99
2019-03-18T09:30:48.883Z,88.35
2019-03-18T09:33:21.630Z,87.79
2019-03-18T09:35:55.439Z,87.36
2019-03-18T09:38:29.495Z,86.33
2019-03-18T09:41:03.276Z,86.12
2019-03-18T09:43:36.588Z,85.16
2019-03-18T09:46:10.131Z,83.83
2019-03-18T09:48:43.559Z,82.43
2019-03-18T09:51:16.995Z,81.24
2019-03-18T09:53:49.920Z,80.09
2019-03-18T09:56:23.190Z,79.21
2019-03-18T09:58:56.417Z,78.07
2019-03-18T10:01:29.533Z,78.82
2019-03-18T10:04:01.288Z,76.48
2019-03-18T10:06:33.834Z,76.57
2019-03-18T10:09:09.503Z,77.02
2019-03-18T10:11:43.780Z,75.13
2019-03-18T10:14:19.706Z,74.73
2019-03-18T10:16:52.774Z,73.71
2019-03-18T10:19:33.543Z,73.61
2019-03-18T10:22:01.574Z,71.59
2019-03-18T10:24:34.397Z,71.08
2019-03-18T10:27:06.928Z,70.09
2019-03-18T10:29:40.743Z,68.99
2019-03-18T10:32:14.482Z,70.60
2019-03-18T10:34:48.832Z,70.08
2019-03-18T10:37:22.908Z,69.72
2019-03-18T10:39:56.402Z,69.86
2019-03-18T10:42:29.981Z,69.86
2019-03-18T10:45:03.303Z,70.15
2019-03-18T10:47:36.196Z,69.03
2019-03-18T10:50:08.757Z,68.38
2019-03-18T10:52:41.776Z,68.84
2019-03-18T10:55:15.564Z,69.11
2019-03-18T10:57:48.853Z,68.80
2019-03-18T11:00:21.866Z,68.65
2019-03-18T11:02:53.512Z,68.22
2019-03-18T11:05:26.911Z,68.37
2019-03-18T11:08:01.167Z,69.14
2019-03-18T11:10:35.608Z,68.71
2019-03-18T11:13:09.170Z,69.20
2019-03-18T11:15:42.852Z,69.29
2019-03-18T11:18:16.525Z,68.70
2019-03-18T11:20:50.393Z,69.37
2019-03-18T11:23:23.887Z,70.02
2019-03-18T11:25:55.240Z,69.86
2019-03-18T11:28:28.940Z,69.73
2019-03-18T11:31:02.277Z,70.27
2019-03-18T11:33:35.339Z,70.60
2019-03-18T11:36:08.658Z,70.68
2019-03-18T11:38:42.561Z,71.08
2019-03-18T11:41:17.442Z,70.86
2019-03-18T11:43:51.223Z,70.99
2019-03-18T11:46:22.640Z,71.81
2019-03-18T11:48:55.845Z,71.86
2019-03-18T11:51:30.235Z,72.10
2019-03-18T11:54:03.636Z,72.80
2019-03-18T11:56:35.833Z,73.58
2019-03-18T11:59:08.223Z,74.26
2019-03-18T12:01:41.594Z,75.02
2019-03-18T12:04:14.643Z,75.49
2019-03-18T12:06:47.741Z,76.00
2019-03-18T12:09:20.520Z,76.38
2019-03-18T12:11:53.328Z,76.22
2019-03-18T12:14:27.260Z,76.45
2019-03-18T12:17:00.611Z,76.89
2019-03-18T12:19:34.357Z,76.26
2019-03-18T12:22:08.450Z,75.10
2019-03-18T12:24:45.804Z,75.63
2019-03-18T12:27:19.116Z,74.43
2019-03-18T12:29:52.618Z,73.88
2019-03-18T12:32:25.924Z,72.97
2019-03-18T12:34:59.147Z,71.90
2019-03-18T12:37:32.196Z,71.60
2019-03-18T12:40:05.654Z,71.37
2019-03-18T12:42:39.106Z,70.32
2019-03-18T12:45:11.606Z,71.21
2019-03-18T12:47:43.929Z,70.08
2019-03-18T12:50:17.554Z,70.30
2019-03-18T12:52:51.195Z,69.44
2019-03-18T12:55:24.624Z,67.57
2019-03-18T12:57:56.326Z,65.95
2019-03-18T13:00:29.196Z,64.53
2019-03-18T13:03:00.763Z,64.17
2019-03-18T13:05:33.783Z,63.28
2019-03-18T13:08:08.414Z,62.79
2019-03-18T13:10:41.802Z,61.62
2019-03-18T13:13:15.415Z,61.61
2019-03-18T13:15:50.622Z,61.00
2019-03-18T13:18:23.282Z,60.47
2019-03-18T13:21:07.247Z,59.72
2019-03-18T13:23:32.557Z,59.42
2019-03-18T13:26:06.273Z,60.70
2019-03-18T13:28:40.537Z,61.38
2019-03-18T13:31:14.240Z,61.69
2019-03-18T13:33:47.964Z,62.43
2019-03-18T13:36:21.469Z,62.14
2019-03-18T13:38:55.525Z,62.23
2019-03-18T13:41:29.927Z,62.85
2019-03-18T13:44:04.064Z,62.63
2019-03-18T13:46:37.466Z,62.30
2019-03-18T13:49:09.485Z,62.28
2019-03-18T13:51:44.955Z,61.85
2019-03-18T13:54:18.086Z,62.34
2019-03-18T13:56:51.954Z,62.71
2019-03-18T13:59:25.338Z,63.05
2019-03-18T14:01:57.474Z,63.37
2019-03-18T14:04:30.217Z,62.79
2019-03-18T14:07:01.648Z,63.19
2019-03-18T14:09:34.071Z,62.89
2019-03-18T14:12:08.628Z,62.88
2019-03-18T14:14:42.111Z,63.37
2019-03-18T14:17:15.828Z,62.58
2019-03-18T14:19:49.456Z,62.06
2019-03-18T14:22:22.545Z,62.25
2019-03-18T14:24:56.616Z,62.61
2019-03-18T14:27:30.687Z,62.07
2019-03-18T14:30:04.940Z,62.76
2019-03-18T14:32:38.445Z,61.93
2019-03-18T14:35:11.697Z,62.73
2019-03-18T14:37:44.988Z,64.05
2019-03-18T14:40:18.229Z,63.84
2019-03-18T14:42:51.625Z,64.28
2019-03-18T14:45:24.612Z,64.32
2019-03-18T14:47:57.898Z,62.03
2019-03-18T14:50:31.908Z,61.97
2019-03-18T14:53:05.395Z,64.29
2019-03-18T14:55:40.005Z,63.89
2019-03-18T14:58:14.407Z,64.29
2019-03-18T15:00:48.868Z,64.12
2019-03-18T15:03:22.717Z,64.91
2019-03-18T15:05:55.913Z,64.59
2019-03-18T15:08:29.976Z,60.70
2019-03-18T15:11:03.442Z,59.63
2019-03-18T15:13:36.924Z,59.82
2019-03-18T15:16:10.838Z,59.76
2019-03-18T15:18:44.851Z,59.08
2019-03-18T15:21:19.041Z,59.51
2019-03-18T15:23:52.792Z,58.96
2019-03-18T15:26:26.286Z,59.71
2019-03-18T15:28:59.922Z,59.16
2019-03-18T15:31:33.013Z,58.58
2019-03-18T15:34:06.166Z,57.03
2019-03-18T15:36:40.351Z,59.08
2019-03-18T15:39:14.041Z,59.38
2019-03-18T15:41:47.997Z,60.70
2019-03-18T15:44:21.880Z,60.91
2019-03-18T15:46:55.853Z,62.78
2019-03-18T15:49:29.741Z,63.69
2019-03-18T15:52:11.087Z,63.21
2019-03-18T15:54:39.389Z,63.45
2019-03-18T15:57:13.236Z,63.63
2019-03-18T15:59:47.185Z,64.53
2019-03-18T16:02:20.478Z,65.33
2019-03-18T16:04:53.051Z,66.66
2019-03-18T16:07:26.501Z,68.10
2019-03-18T16:09:59.970Z,69.37
2019-03-18T16:12:31.912Z,69.74
2019-03-18T16:15:05.290Z,70.39
2019-03-18T16:17:41.657Z,70.94
2019-03-18T16:20:16.225Z,70.44
2019-03-18T16:22:50.037Z,71.26
2019-03-18T16:25:23.948Z,72.41
2019-03-18T16:27:58.249Z,72.40
2019-03-18T16:30:31.660Z,72.59
2019-03-18T16:33:03.293Z,73.65
2019-03-18T16:35:35.682Z,74.57
2019-03-18T16:38:08.384Z,75.14
2019-03-18T16:40:42.065Z,75.66
2019-03-18T16:43:16.124Z,75.56
2019-03-18T16:45:49.579Z,77.02
2019-03-18T16:48:21.771Z,77.59
2019-03-18T16:50:54.855Z,77.95
2019-03-18T16:53:28.246Z,77.92
2019-03-18T16:56:01.229Z,78.12
2019-03-18T16:58:33.771Z,79.35
2019-03-18T17:01:07.407Z,79.44
2019-03-18T17:03:40.593Z,79.55
2019-03-18T17:06:14.048Z,80.26
2019-03-18T17:08:46.779Z,80.81
2019-03-18T17:11:20.494Z,81.22
2019-03-18T17:13:54.099Z,81.98
2019-03-18T17:16:28.431Z,82.58
2019-03-18T17:19:01.152Z,82.60
2019-03-18T17:21:35.099Z,82.97
2019-03-18T17:24:08.532Z,83.32
2019-03-18T17:26:41.072Z,83.17
2019-03-18T17:29:14.340Z,83.42
2019-03-18T17:31:45.772Z,84.14
2019-03-18T17:34:18.903Z,84.38
2019-03-18T17:36:52.612Z,85.01
2019-03-18T17:39:26.327Z,86.54
2019-03-18T17:41:59.682Z,87.96
2019-03-18T17:44:36.210Z,90.17
2019-03-18T17:47:10.393Z,91.04
2019-03-18T17:49:44.388Z,92.12
2019-03-18T17:52:18.109Z,93.29
2019-03-18T17:54:52.115Z,94.31
2019-03-18T17:57:25.112Z,95.46
2019-03-18T17:59:58.246Z,96.95
2019-03-18T18:02:30.791Z,97.95
2019-03-18T18:05:04.910Z,98.71
2019-03-18T18:07:37.984Z,99.20
2019-03-18T18:10:11.713Z,99.64
2019-03-18T18:12:44.790Z,100.00
2019-03-18T18:15:18.338Z,100.00
2019-03-18T18:17:51.855Z,100.00
2019-03-18T18:20:23.977Z,100.00
2019-03-18T18:22:56.695Z,100.00
2019-03-18T18:25:30.109Z,100.00
2019-03-18T18:28:04.230Z,100.00
2019-03-18T18:30:38.537Z,100.00
2019-03-18T18:33:12.435Z,100.00
2019-03-18T18:35:46.038Z,100.00
2019-03-18T18:38:20.676Z,100.00
2019-03-18T18:40:54.658Z,100.00
2019-03-18T18:43:29.287Z,100.00
2019-03-18T18:46:02.876Z,100.00
2019-03-18T18:48:37.037Z,100.00
2019-03-18T18:51:10.704Z,100.00
2019-03-18T18:53:45.237Z,100.00
2019-03-18T18:56:19.279Z,100.00
2019-03-18T18:58:53.075Z,100.00
2019-03-18T19:01:27.458Z,100.00
2019-03-18T19:04:03.327Z,100.00
2019-03-18T19:06:37.246Z,100.00
2019-03-18T19:09:11.605Z,100.00
2019-03-18T19:11:46.560Z,100.00
2019-03-18T19:14:21.151Z,100.00
2019-03-18T19:16:55.601Z,100.00
2019-03-18T19:19:29.031Z,100.00
2019-03-18T19:22:03.328Z,100.00
2019-03-18T19:24:37.305Z,100.00
2019-03-18T19:27:13.995Z,100.00
2019-03-18T19:29:47.919Z,100.00
2019-03-18T19:32:21.877Z,100.00
2019-03-18T19:34:55.015Z,100.00
2019-03-18T19:37:28.435Z,100.00
2019-03-18T19:40:02.276Z,100.00
2019-03-18T19:42:36.087Z,100.00
2019-03-18T19:45:11.539Z,100.00
2019-03-18T19:47:44.665Z,100.00
2019-03-18T19:50:19.302Z,100.00
2019-03-18T19:52:53.535Z,100.00
2019-03-18T19:55:27.011Z,100.00
2019-03-18T19:57:58.812Z,100.00
2019-03-18T20:00:31.627Z,100.00
2019-03-18T20:03:05.779Z,100.00
2019-03-18T20:05:39.819Z,100.00
2019-03-18T20:08:13.713Z,100.00
2019-03-18T20:10:47.891Z,100.00
2019-03-18T20:13:21.270Z,100.00
2019-03-18T20:15:54.913Z,100.00
2019-03-18T20:18:29.983Z,100.00
2019-03-18T20:21:04.356Z,100.00
2019-03-18T20:23:37.782Z,100.00
2019-03-18T20:26:09.640Z,100.00
2019-03-18T20:28:42.789Z,100.00
2019-03-18T20:31:25.422Z,100.00
2019-03-18T20:33:52.138Z,100.00
2019-03-18T20:36:26.018Z,100.00
2019-03-18T20:38:59.932Z,100.00
2019-03-18T20:41:33.371Z,100.00
2019-03-18T20:44:05.377Z,100.00
2019-03-18T20:46:38.078Z,100.00
2019-03-18T20:49:12.544Z,100.00
2019-03-18T20:51:46.286Z,100.00
2019-03-18T20:54:20.222Z,100.00
2019-03-18T20:56:54.143Z,100.00
2019-03-18T20:59:27.642Z,100.00
2019-03-18T21:02:02.393Z,100.00
2019-03-18T21:04:35.958Z,100.00
2019-03-18T21:07:09.783Z,100.00
2019-03-18T21:09:45.119Z,100.00
2019-03-18T21:12:19.454Z,100.00
2019-03-18T21:14:53.407Z,100.00
2019-03-18T21:17:27.064Z,100.00
2019-03-18T21:20:00.954Z,100.00
2019-03-18T21:22:34.528Z,100.00
2019-03-18T21:25:07.926Z,100.00
2019-03-18T21:27:41.088Z,100.00
2019-03-18T21:30:14.724Z,100.00
2019-03-18T21:32:46.238Z,100.00
2019-03-18T21:35:20.261Z,100.00
2019-03-18T21:37:53.749Z,100.00
2019-03-18T21:40:27.267Z,100.00
2019-03-18T21:43:01.019Z,100.00
2019-03-18T21:45:35.659Z,100.00
2019-03-18T21:48:09.308Z,100.00
2019-03-18T21:50:42.688Z,100.00
2019-03-18T21:53:17.262Z,100.00
2019-03-18T21:55:51.218Z,100.00
2019-03-18T21:58:24.644Z,100.00
2019-03-18T22:00:58.360Z,100.00
2019-03-18T22:03:31.689Z,100.00
2019-03-18T22:06:04.569Z,100.00
2019-03-18T22:08:38.449Z,100.00
2019-03-18T22:11:14.232Z,100.00
2019-03-18T22:13:48.133Z,100.00
2019-03-18T22:16:19.892Z,100.00
2019-03-18T22:18:55.894Z,100.00
2019-03-18T22:21:28.988Z,100.00
2019-03-18T22:24:03.553Z,100.00
2019-03-18T22:26:37.769Z,100.00
2019-03-18T22:29:12.365Z,100.00
2019-03-18T22:31:46.585Z,100.00
2019-03-18T22:34:21.682Z,100.00
2019-03-18T22:36:55.755Z,100.00
2019-03-18T22:39:34.938Z,100.00
2019-03-18T22:42:09.648Z,100.00
2019-03-18T22:44:45.875Z,100.00
2019-03-18T22:47:19.213Z,100.00
2019-03-18T22:49:52.771Z,100.00
2019-03-18T22:52:25.805Z,100.00
2019-03-18T22:55:01.914Z,100.00
2019-03-18T22:57:35.359Z,100.00
2019-03-18T23:00:20.560Z,100.00
2019-03-18T23:03:00.736Z,100.00
2019-03-18T23:05:34.480Z,100.00
2019-03-18T23:08:07.968Z,100.00
2019-03-18T23:10:42.052Z,100.00
2019-03-18T23:13:16.687Z,100.00
2019-03-18T23:15:49.734Z,100.00
2019-03-18T23:18:23.197Z,100.00
2019-03-18T23:20:58.602Z,100.00
2019-03-18T23:23:32.004Z,100.00
2019-03-18T23:26:05.812Z,100.00
2019-03-18T23:28:45.939Z,100.00
2019-03-18T23:31:21.306Z,100.00
2019-03-18T23:33:58.727Z,100.00
2019-03-18T23:36:31.586Z,100.00
2019-03-18T23:39:05.927Z,100.00
2019-03-18T23:41:40.330Z,100.00
2019-03-18T23:44:14.276Z,100.00
2019-03-18T23:46:46.934Z,100.00
2019-03-18T23:49:19.630Z,100.00
2019-03-18T23:51:53.402Z,100.00
2019-03-18T23:54:27.648Z,100.00
2019-03-18T23:57:00.660Z,100.00
